createdAt,value
2023-03-22T00:01:46.170Z,69.48
2023-03-22T00:04:12.674Z,69.04
2023-03-22T00:06:39.088Z,68.63
2023-03-22T00:09:05.644Z,68.18
2023-03-22T00:11:31.958Z,67.89
2023-03-22T00:13:58.906Z,68.41
2023-03-22T00:16:25.538Z,68.06
2023-03-22T00:18:51.930Z,67.92
2023-03-22T00:21:18.483Z,68.49
2023-03-22T00:23:45.373Z,68.33
2023-03-22T00:26:13.430Z,67.83
2023-03-22T00:28:39.859Z,67.25
2023-03-22T00:31:07.010Z,68.10
2023-03-22T00:33:33.683Z,67.36
2023-03-22T00:36:11.376Z,67.71
2023-03-22T00:38:42.942Z,66.99
2023-03-22T00:41:20.388Z,66.94
2023-03-22T00:43:48.011Z,66.92
2023-03-22T00:46:15.617Z,67.14
2023-03-22T00:48:42.047Z,67.13
2023-03-22T00:51:09.590Z,66.32
2023-03-22T00:53:41.860Z,66.40
2023-03-22T00:56:09.088Z,66.68
2023-03-22T00:58:35.599Z,67.24
2023-03-22T01:01:01.990Z,66.85
2023-03-22T01:03:28.386Z,66.93
2023-03-22T01:05:57.776Z,66.98
2023-03-22T01:08:24.202Z,66.63
2023-03-22T01:10:51.303Z,66.84
2023-03-22T01:13:18.275Z,67.10
2023-03-22T01:15:45.123Z,66.49
2023-03-22T01:18:11.563Z,65.68
2023-03-22T01:20:38.337Z,66.26
2023-03-22T01:23:04.937Z,66.45
2023-03-22T01:25:31.447Z,65.97
2023-03-22T01:27:57.977Z,66.10
2023-03-22T01:30:24.291Z,65.56
2023-03-22T01:32:50.626Z,65.55
2023-03-22T01:35:16.965Z,66.06
2023-03-22T01:37:43.345Z,65.93
2023-03-22T01:40:12.227Z,67.04
2023-03-22T01:42:38.640Z,66.37
2023-03-22T01:45:13.800Z,66.43
2023-03-22T01:47:55.401Z,66.38
2023-03-22T01:50:24.300Z,66.77
2023-03-22T01:52:51.715Z,66.69
2023-03-22T01:55:18.454Z,66.54
2023-03-22T01:57:45.214Z,66.30
2023-03-22T02:00:15.763Z,66.49
2023-03-22T02:02:43.657Z,65.71
2023-03-22T02:05:10.188Z,65.26
2023-03-22T02:07:38.286Z,65.94
2023-03-22T02:10:04.977Z,65.60
2023-03-22T02:12:40.524Z,66.22
2023-03-22T02:15:25.537Z,65.65
2023-03-22T02:18:16.977Z,65.68
2023-03-22T02:20:56.430Z,66.45
2023-03-22T02:24:00.257Z,66.08
2023-03-22T02:27:06.566Z,66.56
2023-03-22T02:29:44.865Z,66.09
2023-03-22T02:32:38.786Z,66.46
2023-03-22T02:35:27.217Z,66.43
2023-03-22T02:38:08.877Z,66.26
2023-03-22T02:41:00.432Z,66.07
2023-03-22T02:43:59.050Z,65.92
2023-03-22T02:46:34.314Z,66.29
2023-03-22T02:49:38.682Z,66.19
2023-03-22T02:52:26.476Z,65.96
2023-03-22T02:55:01.533Z,66.09
2023-03-22T02:57:42.521Z,65.94
2023-03-22T03:00:12.405Z,66.09
2023-03-22T03:02:44.102Z,66.57
2023-03-22T03:05:13.791Z,66.83
2023-03-22T03:07:45.149Z,66.50
2023-03-22T03:10:13.698Z,66.63
2023-03-22T03:12:40.078Z,66.96
2023-03-22T03:15:14.649Z,66.41
2023-03-22T03:18:02.724Z,66.45
2023-03-22T03:20:49.201Z,67.28
2023-03-22T03:23:24.368Z,67.12
2023-03-22T03:26:11.141Z,67.85
2023-03-22T03:28:50.085Z,67.59
2023-03-22T03:31:26.971Z,67.14
2023-03-22T03:34:17.900Z,67.46
2023-03-22T03:36:52.915Z,67.22
2023-03-22T03:39:21.120Z,67.56
2023-03-22T03:41:50.195Z,67.61
2023-03-22T03:44:17.957Z,67.58
2023-03-22T03:46:45.790Z,67.13
2023-03-22T03:49:13.220Z,67.71
2023-03-22T03:51:51.728Z,68.13
2023-03-22T03:54:18.139Z,67.48
2023-03-22T03:56:44.496Z,68.05
2023-03-22T03:59:10.796Z,68.39
2023-03-22T04:01:37.288Z,68.34
2023-03-22T04:04:03.600Z,67.67
2023-03-22T04:06:29.999Z,68.66
2023-03-22T04:08:56.499Z,67.79
2023-03-22T04:11:22.760Z,67.63
2023-03-22T04:13:49.014Z,68.15
2023-03-22T04:16:15.377Z,67.58
2023-03-22T04:18:41.682Z,68.26
2023-03-22T04:21:07.965Z,68.12
2023-03-22T04:23:34.235Z,68.14
2023-03-22T04:26:00.741Z,67.61
2023-03-22T04:28:27.061Z,67.42
2023-03-22T04:30:53.358Z,68.08
2023-03-22T04:33:22.674Z,67.49
2023-03-22T04:35:49.930Z,67.69
2023-03-22T04:38:16.433Z,68.07
2023-03-22T04:40:46.497Z,67.68
2023-03-22T04:43:13.928Z,67.44
2023-03-22T04:45:41.989Z,67.37
2023-03-22T04:48:10.548Z,67.10
2023-03-22T04:50:38.237Z,66.41
2023-03-22T04:53:04.727Z,66.08
2023-03-22T04:55:31.048Z,66.91
2023-03-22T04:57:57.323Z,66.13
2023-03-22T05:00:23.883Z,66.23
2023-03-22T05:02:50.614Z,66.07
2023-03-22T05:05:17.089Z,66.09
2023-03-22T05:07:43.391Z,66.46
2023-03-22T05:10:10.459Z,67.14
2023-03-22T05:12:36.750Z,66.52
2023-03-22T05:15:05.988Z,66.37
2023-03-22T05:17:32.372Z,66.91
2023-03-22T05:19:58.741Z,67.24
2023-03-22T05:22:25.032Z,66.82
2023-03-22T05:24:51.680Z,67.16
2023-03-22T05:27:17.941Z,66.95
2023-03-22T05:29:45.068Z,66.67
2023-03-22T05:32:12.108Z,67.22
2023-03-22T05:34:38.791Z,67.35
2023-03-22T05:37:05.069Z,67.20
2023-03-22T05:39:31.886Z,67.06
2023-03-22T05:41:58.192Z,67.51
2023-03-22T05:44:24.541Z,67.13
2023-03-22T05:46:50.875Z,67.10
2023-03-22T05:49:17.232Z,67.43
2023-03-22T05:51:43.536Z,67.23
2023-03-22T05:54:10.996Z,67.40
2023-03-22T05:56:37.340Z,67.18
2023-03-22T05:59:04.636Z,67.04
2023-03-22T06:01:30.970Z,67.25
2023-03-22T06:03:57.276Z,67.07
2023-03-22T06:06:23.865Z,67.04
2023-03-22T06:08:50.179Z,66.46
2023-03-22T06:11:16.509Z,66.28
2023-03-22T06:13:42.813Z,66.83
2023-03-22T06:16:09.871Z,67.27
2023-03-22T06:18:36.184Z,67.14
2023-03-22T06:21:02.494Z,67.10
2023-03-22T06:23:28.996Z,67.91
2023-03-22T06:25:55.364Z,67.14
2023-03-22T06:28:21.728Z,67.21
2023-03-22T06:30:48.070Z,66.91
2023-03-22T06:33:14.450Z,66.29
2023-03-22T06:35:40.759Z,67.08
2023-03-22T06:38:07.152Z,65.44
2023-03-22T06:40:35.594Z,62.71
2023-03-22T06:43:05.139Z,61.72
2023-03-22T06:45:33.471Z,61.70
2023-03-22T06:48:00.859Z,58.65
2023-03-22T06:50:28.237Z,55.34
2023-03-22T06:52:55.025Z,53.54
2023-03-22T06:55:21.357Z,50.85
2023-03-22T06:57:47.652Z,48.35
2023-03-22T07:00:15.141Z,47.37
2023-03-22T07:02:41.444Z,47.54
2023-03-22T07:05:08.146Z,50.19
2023-03-22T07:07:34.449Z,53.60
2023-03-22T07:10:00.738Z,55.78
2023-03-22T07:12:27.013Z,57.60
2023-03-22T07:14:53.462Z,60.01
2023-03-22T07:17:19.803Z,60.69
2023-03-22T07:19:46.198Z,62.62
2023-03-22T07:22:12.555Z,62.79
2023-03-22T07:24:50.309Z,62.69
2023-03-22T07:27:21.085Z,59.88
2023-03-22T07:29:47.614Z,58.76
2023-03-22T07:32:13.993Z,55.56
2023-03-22T07:34:40.419Z,53.97
2023-03-22T07:37:08.289Z,54.08
2023-03-22T07:39:35.132Z,55.81
2023-03-22T07:42:01.491Z,56.27
2023-03-22T07:44:28.264Z,58.22
2023-03-22T07:46:54.637Z,59.38
2023-03-22T07:49:21.277Z,60.07
2023-03-22T07:51:47.515Z,59.82
2023-03-22T07:54:22.754Z,60.88
2023-03-22T07:56:57.278Z,60.22
2023-03-22T07:59:23.724Z,61.30
2023-03-22T08:01:50.204Z,61.34
2023-03-22T08:04:16.599Z,61.17
2023-03-22T08:06:43.770Z,60.89
2023-03-22T08:09:10.065Z,60.94
2023-03-22T08:11:39.049Z,60.30
2023-03-22T08:14:05.456Z,60.24
2023-03-22T08:16:32.578Z,60.31
2023-03-22T08:18:58.947Z,60.17
2023-03-22T08:21:25.340Z,59.60
2023-03-22T08:23:51.742Z,58.78
2023-03-22T08:26:18.605Z,57.80
2023-03-22T08:28:44.894Z,56.89
2023-03-22T08:31:16.965Z,55.97
2023-03-22T08:33:44.628Z,55.13
2023-03-22T08:36:13.959Z,55.47
2023-03-22T08:38:42.280Z,54.62
2023-03-22T08:41:08.623Z,55.15
2023-03-22T08:43:34.947Z,55.63
2023-03-22T08:46:01.357Z,56.08
2023-03-22T08:48:30.294Z,55.72
2023-03-22T08:50:57.724Z,56.82
2023-03-22T08:53:24.338Z,56.45
2023-03-22T08:55:50.892Z,57.34
2023-03-22T08:58:19.626Z,57.58
2023-03-22T09:00:49.523Z,57.16
2023-03-22T09:03:16.693Z,58.04
2023-03-22T09:05:43.318Z,56.62
2023-03-22T09:08:18.270Z,56.31
2023-03-22T09:10:47.854Z,55.25
2023-03-22T09:13:14.926Z,54.68
2023-03-22T09:15:41.451Z,54.71
2023-03-22T09:18:07.966Z,54.95
2023-03-22T09:20:34.577Z,53.75
2023-03-22T09:23:00.874Z,52.44
2023-03-22T09:25:27.439Z,52.59
2023-03-22T09:27:53.736Z,52.15
2023-03-22T09:30:20.069Z,50.62
2023-03-22T09:32:46.428Z,51.49
2023-03-22T09:35:12.760Z,52.32
2023-03-22T09:37:39.215Z,52.15
2023-03-22T09:40:07.627Z,52.58
2023-03-22T09:42:40.606Z,53.76
2023-03-22T09:45:13.308Z,52.38
2023-03-22T09:47:45.687Z,53.02
2023-03-22T09:50:20.311Z,52.51
2023-03-22T09:52:47.325Z,52.26
2023-03-22T09:55:37.613Z,52.18
2023-03-22T09:58:11.841Z,51.85
2023-03-22T10:00:45.359Z,53.54
2023-03-22T10:03:21.169Z,54.13
2023-03-22T10:06:01.550Z,53.97
2023-03-22T10:08:47.144Z,52.54
2023-03-22T10:11:19.856Z,51.98
2023-03-22T10:14:05.142Z,52.17
2023-03-22T10:16:35.488Z,52.52
2023-03-22T10:19:08.118Z,52.75
2023-03-22T10:21:35.798Z,53.62
2023-03-22T10:24:14.948Z,51.64
2023-03-22T10:26:45.892Z,51.80
2023-03-22T10:29:14.802Z,51.04
2023-03-22T10:31:45.099Z,51.17
2023-03-22T10:34:24.534Z,51.32
2023-03-22T10:36:52.287Z,51.93
2023-03-22T10:39:40.060Z,51.09
2023-03-22T10:42:13.184Z,51.62
2023-03-22T10:44:50.211Z,51.65
2023-03-22T10:47:19.661Z,48.70
2023-03-22T10:49:54.297Z,47.06
2023-03-22T10:52:56.523Z,47.00
2023-03-22T10:55:24.613Z,45.39
2023-03-22T10:58:14.907Z,43.37
2023-03-22T11:01:08.205Z,41.86
2023-03-22T11:03:48.530Z,41.52
2023-03-22T11:06:38.123Z,41.61
2023-03-22T11:09:17.876Z,42.03
2023-03-22T11:11:54.308Z,42.08
2023-03-22T11:14:33.384Z,41.86
2023-03-22T11:17:01.110Z,41.08
2023-03-22T11:19:32.593Z,40.92
2023-03-22T11:22:00.822Z,42.28
2023-03-22T11:24:30.613Z,41.92
2023-03-22T11:27:06.181Z,41.02
2023-03-22T11:29:44.225Z,40.81
2023-03-22T11:32:31.100Z,40.00
2023-03-22T11:35:14.769Z,40.21
2023-03-22T11:37:46.815Z,39.46
2023-03-22T11:40:17.825Z,39.47
2023-03-22T11:42:45.646Z,39.46
2023-03-22T11:45:18.460Z,39.41
2023-03-22T11:47:45.131Z,39.67
2023-03-22T11:50:42.290Z,39.42
2023-03-22T11:53:16.205Z,39.75
2023-03-22T11:55:43.767Z,39.78
2023-03-22T11:58:28.924Z,39.37
2023-03-22T12:00:59.457Z,38.94
2023-03-22T12:03:39.406Z,38.08
2023-03-22T12:06:20.210Z,36.75
2023-03-22T12:08:52.787Z,36.57
2023-03-22T12:11:28.078Z,36.45
2023-03-22T12:14:18.271Z,35.63
2023-03-22T12:16:51.914Z,34.57
2023-03-22T12:19:45.344Z,34.33
2023-03-22T12:22:16.000Z,34.24
2023-03-22T12:24:43.061Z,34.88
2023-03-22T12:27:16.628Z,34.45
2023-03-22T12:29:53.720Z,35.15
2023-03-22T12:32:33.855Z,34.73
2023-03-22T12:35:17.614Z,33.89
2023-03-22T12:37:48.259Z,34.11
2023-03-22T12:40:23.320Z,34.75
2023-03-22T12:43:21.650Z,34.71
2023-03-22T12:45:57.861Z,35.62
2023-03-22T12:48:30.561Z,34.61
2023-03-22T12:51:09.386Z,33.54
2023-03-22T12:53:42.460Z,33.75
2023-03-22T12:56:16.242Z,33.43
2023-03-22T12:58:48.045Z,34.29
2023-03-22T13:01:25.294Z,32.78
2023-03-22T13:03:54.756Z,32.05
2023-03-22T13:06:32.609Z,32.23
2023-03-22T13:09:36.566Z,32.43
2023-03-22T13:12:17.889Z,32.72
2023-03-22T13:14:53.164Z,33.84
2023-03-22T13:17:22.295Z,33.16
2023-03-22T13:20:07.123Z,33.25
2023-03-22T13:22:36.542Z,32.34
2023-03-22T13:25:18.989Z,32.47
2023-03-22T13:27:45.319Z,32.57
2023-03-22T13:30:26.938Z,32.81
2023-03-22T13:33:20.952Z,32.52
2023-03-22T13:35:54.124Z,32.68
2023-03-22T13:38:22.407Z,32.41
2023-03-22T13:41:07.109Z,32.54
2023-03-22T13:43:39.535Z,32.18
2023-03-22T13:46:12.040Z,31.78
2023-03-22T13:48:47.620Z,31.74
2023-03-22T13:51:19.278Z,32.25
2023-03-22T13:54:06.942Z,31.53
2023-03-22T13:56:48.435Z,31.64
2023-03-22T13:59:27.061Z,32.40
2023-03-22T14:02:07.525Z,31.69
2023-03-22T14:04:46.024Z,31.76
2023-03-22T14:07:14.968Z,31.74
2023-03-22T14:09:50.483Z,32.33
2023-03-22T14:12:36.711Z,31.83
2023-03-22T14:15:06.670Z,32.65
2023-03-22T14:17:50.699Z,33.06
2023-03-22T14:20:20.591Z,33.81
